Time;durP1;ratioP1;P1;durP2;ratioP2;P2;SDS_P1;SDS_P2;PMS_P1;PMS_P2;Temp;Humidity;BMP_temperature;BMP_pressure;BME280_temperature;BME280_humidity;BME280_pressure;Samples;Min_cycle;Max_cycle;Signal;HPM_P1;HPM_P2
2022/04/02 00:02:27;;;;;;;16.92;12.23;;;;;;;-1.13;92.95;101243.94;10498362;28;20071;-77
2022/04/02 00:07:27;;;;;;;17.77;13.80;;;;;;;-1.13;92.98;101244.84;10496373;28;20048;-77
2022/04/02 00:12:28;;;;;;;18.42;13.05;;;;;;;-1.14;92.64;101255.88;10496847;28;20056;-77
2022/04/02 00:17:28;;;;;;;20.38;12.82;;;;;;;-1.12;93.00;101251.81;10497003;28;20052;-77
2022/04/02 00:22:29;;;;;;;18.25;12.52;;;;;;;-1.14;92.48;101260.09;10497579;28;20489;-77
2022/04/02 00:27:29;;;;;;;15.80;11.93;;;;;;;-1.13;92.97;101259.34;10495781;28;20044;-77
2022/04/02 00:32:30;;;;;;;15.02;10.93;;;;;;;-1.18;92.05;101261.47;10493513;28;20805;-77
2022/04/02 00:37:30;;;;;;;17.60;10.73;;;;;;;-1.18;92.32;101251.19;10480591;28;20060;-77
2022/04/02 00:42:31;;;;;;;22.05;11.20;;;;;;;-1.20;91.80;101255.25;10496945;28;20118;-76
2022/04/02 00:47:31;;;;;;;14.45;10.30;;;;;;;-1.24;91.91;101248.00;10494767;28;20478;-77
2022/04/02 00:52:32;;;;;;;12.10;8.73;;;;;;;-1.24;91.97;101253.13;10497610;28;20038;-77
2022/04/02 00:57:33;;;;;;;12.85;8.90;;;;;;;-1.25;92.13;101261.59;10494152;28;20494;-77
2022/04/02 01:02:34;;;;;;;15.82;9.38;;;;;;;-1.26;92.01;101258.09;10477012;28;20020;-77
2022/04/02 01:07:35;;;;;;;14.20;8.45;;;;;;;-1.27;92.16;101250.25;10495955;28;20029;-77
2022/04/02 01:12:36;;;;;;;17.20;9.95;;;;;;;-1.28;92.38;101249.34;10477603;28;20031;-77
2022/04/02 01:17:40;;;;;;;15.25;8.73;;;;;;;-1.27;92.13;101256.28;10494501;28;20060;-78
2022/04/02 01:22:40;;;;;;;12.18;8.25;;;;;;;-1.27;91.92;101255.41;10493931;28;20093;-77
2022/04/02 01:27:42;;;;;;;15.60;8.25;;;;;;;-1.29;92.60;101264.59;10476714;28;20121;-77
2022/04/02 01:32:42;;;;;;;12.45;9.23;;;;;;;-1.31;92.01;101254.16;10493559;28;20403;-77
2022/04/02 01:37:43;;;;;;;14.40;9.10;;;;;;;-1.33;92.56;101259.16;10493886;28;20047;-77
2022/04/02 01:42:43;;;;;;;14.77;9.25;;;;;;;-1.32;92.33;101265.19;10493829;28;20068;-77
2022/04/02 01:47:44;;;;;;;12.52;8.55;;;;;;;-1.35;92.41;101255.53;10495384;28;20048;-77
2022/04/02 01:52:45;;;;;;;14.27;8.98;;;;;;;-1.36;92.29;101263.97;10494870;28;20106;-77
2022/04/02 01:57:46;;;;;;;15.90;8.48;;;;;;;-1.39;92.02;101260.19;10475035;28;20102;-77
2022/04/02 02:02:47;;;;;;;19.27;9.52;;;;;;;-1.41;93.05;101267.75;10493870;28;20035;-77
2022/04/02 02:07:51;;;;;;;18.85;8.57;;;;;;;-1.40;92.33;101260.94;10475109;28;20098;-77
2022/04/02 02:12:51;;;;;;;12.60;7.90;;;;;;;-1.39;92.26;101270.44;10500283;28;20364;-77
2022/04/02 02:17:52;;;;;;;13.60;7.70;;;;;;;-1.40;91.81;101264.41;10501172;28;20064;-77
2022/04/02 02:22:53;;;;;;;12.68;7.40;;;;;;;-1.38;91.54;101272.25;10483917;28;20040;-76
2022/04/02 02:27:53;;;;;;;14.05;7.65;;;;;;;-1.39;90.95;101270.44;10501737;28;20025;-76
2022/04/02 02:35:49;;;;;;;11.18;6.18;;;;;;;-1.40;90.86;101282.41;10500315;28;20032;-77
2022/04/02 02:38:15;;;;;;;11.48;7.35;;;;;;;-1.43;90.96;101270.88;10502466;28;20113;-77
2022/04/02 02:43:16;;;;;;;9.68;6.28;;;;;;;-1.43;90.02;101266.69;10482997;28;20041;-77
2022/04/02 02:48:17;;;;;;;9.80;5.87;;;;;;;-1.45;89.71;101273.31;10481822;28;20443;-77
2022/04/02 02:53:17;;;;;;;9.88;6.47;;;;;;;-1.48;89.05;101273.88;10500951;28;20040;-76
2022/04/02 02:58:18;;;;;;;8.43;4.60;;;;;;;-1.54;89.56;101270.69;10500456;28;20089;-76
2022/04/02 03:03:18;;;;;;;7.35;4.53;;;;;;;-1.56;89.60;101255.91;10500232;28;20055;-76
2022/04/02 03:08:19;;;;;;;10.77;5.80;;;;;;;-1.59;89.83;101258.16;10499124;28;20060;-76
2022/04/02 03:13:20;;;;;;;8.03;4.07;;;;;;;-1.55;89.35;101257.72;10500066;28;20031;-77
2022/04/02 03:18:21;;;;;;;9.68;3.80;;;;;;;-1.52;88.45;101261.50;10498788;28;20494;-77
2022/04/02 03:23:21;;;;;;;7.28;3.60;;;;;;;-1.49;87.56;101258.34;10499206;28;20109;-77
2022/04/02 03:28:22;;;;;;;6.03;3.42;;;;;;;-1.44;86.07;101266.50;10498830;28;20874;-77
2022/04/02 03:33:22;;;;;;;6.57;4.45;;;;;;;-1.44;85.59;101275.13;10499131;28;20111;-77
2022/04/02 03:38:23;;;;;;;5.75;3.28;;;;;;;-1.46;85.64;101266.38;10480154;28;20056;-77
2022/04/02 03:43:23;;;;;;;7.57;4.90;;;;;;;-1.44;84.58;101271.63;10463798;28;20060;-77
2022/04/02 03:48:24;;;;;;;5.03;3.15;;;;;;;-1.44;84.20;101266.50;10498691;28;20071;-77
2022/04/02 03:53:24;;;;;;;8.82;3.63;;;;;;;-1.44;83.98;101269.06;10498986;28;20072;-77
2022/04/02 03:58:25;;;;;;;5.28;3.55;;;;;;;-1.43;83.45;101270.88;10496825;28;20087;-77
2022/04/02 04:03:25;;;;;;;6.65;3.80;;;;;;;-1.41;81.57;101274.53;10479413;28;20039;-78
2022/04/02 04:08:26;;;;;;;5.78;3.22;;;;;;;-1.36;81.03;101288.72;10499291;28;20537;-77
2022/04/02 04:13:26;;;;;;;4.60;2.63;;;;;;;-1.34;79.72;101280.44;10496402;28;20024;-78
2022/04/02 04:18:27;;;;;;;5.88;3.08;;;;;;;-1.33;78.25;101277.13;10463891;28;20067;-78
2022/04/02 04:23:28;;;;;;;3.00;1.70;;;;;;;-1.25;77.12;101287.28;10496362;28;20055;-79
2022/04/02 04:28:28;;;;;;;5.13;2.42;;;;;;;-1.23;76.18;101294.38;10477500;28;20433;-78
2022/04/02 04:33:29;;;;;;;5.32;1.80;;;;;;;-1.26;76.05;101299.19;10494059;28;20055;-78
2022/04/02 04:38:30;;;;;;;4.97;2.42;;;;;;;-1.27;75.53;101306.75;10495265;28;20067;-78
2022/04/02 04:43:30;;;;;;;5.20;2.35;;;;;;;-1.25;75.79;101311.28;10496694;28;20040;-78
2022/04/02 04:48:31;;;;;;;6.90;2.50;;;;;;;-1.26;74.94;101311.16;10476109;28;20398;-78
2022/04/02 04:53:31;;;;;;;3.38;1.70;;;;;;;-1.27;75.78;101319.59;10495407;28;20039;-79
2022/04/02 04:58:32;;;;;;;5.22;1.98;;;;;;;-1.31;75.89;101318.38;10495823;28;20481;-79
2022/04/02 05:03:33;;;;;;;3.63;1.88;;;;;;;-1.31;75.15;101328.63;10476552;28;20533;-78
2022/04/02 05:08:34;;;;;;;3.03;1.88;;;;;;;-1.26;74.97;101335.16;10477107;28;20107;-78
2022/04/02 05:13:34;;;;;;;3.53;1.77;;;;;;;-1.19;75.16;101334.13;10476503;28;20119;-78
2022/04/02 05:18:35;;;;;;;5.05;2.50;;;;;;;-1.12;74.92;101343.38;10475688;28;20042;-78
2022/04/02 05:23:35;;;;;;;4.00;1.75;;;;;;;-1.13;75.42;101350.19;10496023;28;20040;-77
2022/04/02 05:28:36;;;;;;;4.80;2.05;;;;;;;-1.09;74.76;101356.53;10515474;28;20029;-79
2022/04/02 05:33:38;;;;;;;4.60;2.17;;;;;;;-1.01;73.42;101368.50;10493992;28;20028;-79
2022/04/02 05:38:38;;;;;;;;;;;;;;;-0.87;72.55;101369.91;10488657;28;20048;-77
2022/04/02 05:43:39;;;;;;;4.40;2.53;;;;;;;-0.81;73.69;101369.59;10494494;28;19923;-80
2022/04/02 05:48:40;;;;;;;3.10;2.00;;;;;;;-0.72;71.72;101370.53;10492762;28;20083;-79
2022/04/02 05:53:40;;;;;;;2.70;1.40;;;;;;;-0.64;73.11;101382.50;10458695;28;20044;-76
2022/04/02 05:58:41;;;;;;;3.65;1.65;;;;;;;-0.56;71.47;101385.84;10493652;28;20071;-77
2022/04/02 06:03:42;;;;;;;2.75;1.80;;;;;;;-0.47;71.66;101384.22;10476866;28;20523;-77
2022/04/02 06:08:42;;;;;;;5.22;2.42;;;;;;;-0.35;71.29;101397.38;10493014;28;20471;-78
2022/04/02 06:13:43;;;;;;;3.83;2.15;;;;;;;-0.20;70.57;101404.78;10492735;28;20446;-77
2022/04/02 06:18:43;;;;;;;4.07;1.73;;;;;;;-0.01;70.35;101412.69;10491622;28;20064;-78
2022/04/02 06:23:44;;;;;;;2.10;1.45;;;;;;;0.07;69.38;101418.59;10495458;28;20388;-78
2022/04/02 06:28:48;;;;;;;2.90;2.13;;;;;;;0.11;69.09;101424.19;10491131;28;20434;-79
2022/04/02 06:33:48;;;;;;;3.55;1.70;;;;;;;0.20;69.60;101424.19;10492712;28;20036;-78
2022/04/02 06:38:49;;;;;;;3.67;1.75;;;;;;;0.31;68.25;101435.53;10473246;28;20033;-78
2022/04/02 06:43:49;;;;;;;4.53;2.10;;;;;;;0.31;67.41;101432.97;10487533;28;20552;-78
2022/04/02 06:48:50;;;;;;;5.18;1.83;;;;;;;0.28;68.29;101440.41;10474091;28;20365;-78
2022/04/02 06:53:51;;;;;;;3.55;1.80;;;;;;;0.33;67.88;101449.47;10492615;28;20036;-78
2022/04/02 06:58:51;;;;;;;4.95;1.40;;;;;;;0.41;66.10;101453.72;10480574;28;20480;-78
2022/04/02 07:03:58;;;;;;;3.13;1.60;;;;;;;0.56;66.40;101454.28;10483178;28;20052;-77
2022/04/02 07:08:58;;;;;;;3.22;1.40;;;;;;;0.72;66.72;101476.38;10481560;28;20036;-78
2022/04/02 07:13:59;;;;;;;2.78;1.83;;;;;;;0.91;65.67;101483.31;10499076;28;20059;-77
2022/04/02 07:19:01;;;;;;;2.80;1.48;;;;;;;1.10;65.53;101492.06;10481752;28;20064;-77
2022/04/02 07:24:01;;;;;;;6.73;1.73;;;;;;;1.31;65.52;101477.72;10465134;28;20103;-78
2022/04/02 07:29:02;;;;;;;4.15;1.75;;;;;;;1.41;63.52;101482.06;10464111;28;20035;-77
2022/04/02 07:34:02;;;;;;;3.25;2.00;;;;;;;1.70;62.82;101494.22;10465301;28;20418;-77
2022/04/02 07:39:32;;;;;;;4.00;1.40;;;;;;;1.97;62.99;101484.63;10482098;28;20029;-77
2022/04/02 07:45:10;;;;;;;7.05;1.98;;;;;;;2.12;61.53;101504.88;10498900;28;20040;-77
2022/04/02 07:50:13;;;;;;;3.05;1.83;;;;;;;2.52;61.76;101497.28;10424783;28;20084;-78
2022/04/02 07:55:13;;;;;;;6.47;2.63;;;;;;;2.74;61.19;101503.63;10399690;28;20036;-77
2022/04/02 08:00:15;;;;;;;4.57;2.33;;;;;;;2.71;60.31;101505.94;10415151;28;20029;-77
2022/04/02 08:05:17;;;;;;;2.50;1.80;;;;;;;2.91;60.99;101523.19;10413771;28;20437;-77
2022/04/02 08:10:19;;;;;;;3.83;2.20;;;;;;;3.00;59.79;101523.13;10414571;28;20025;-79
2022/04/02 08:15:20;;;;;;;3.08;1.35;;;;;;;3.92;58.58;101523.19;10414987;28;20117;-79
2022/04/02 08:20:21;;;;;;;3.80;1.55;;;;;;;3.85;56.39;101518.28;10412721;28;20051;-78
2022/04/02 08:25:22;;;;;;;3.17;2.07;;;;;;;4.00;57.32;101529.94;10396337;28;20389;-79
2022/04/02 08:30:38;;;;;;;2.92;1.70;;;;;;;3.93;58.32;101544.06;10413569;28;20284;-79
2022/04/02 08:35:59;;;;;;;6.53;2.55;;;;;;;3.78;57.93;101538.47;10413672;28;20029;-79
2022/04/02 08:41:26;;;;;;;5.65;2.60;;;;;;;4.13;58.55;101546.50;10412523;28;20393;-79
2022/04/02 08:46:36;;;;;;;4.07;2.85;;;;;;;3.87;54.22;101540.94;10407723;28;20036;-79
2022/04/02 08:51:48;;;;;;;4.25;2.45;;;;;;;4.14;56.37;101548.31;10440575;28;20425;-79
2022/04/02 08:56:51;;;;;;;3.50;2.03;;;;;;;4.79;55.44;101557.22;10454933;28;20040;-80
2022/04/02 09:01:58;;;;;;;3.72;2.35;;;;;;;4.73;53.70;101558.38;10451914;28;20551;-80
2022/04/02 09:07:18;;;;;;;4.00;2.45;;;;;;;5.39;53.32;101574.13;10411393;28;20064;-79
2022/04/02 09:12:24;;;;;;;3.72;1.85;;;;;;;5.77;52.84;101580.50;10412735;28;20120;-79
2022/04/02 09:17:37;;;;;;;3.20;2.08;;;;;;;5.73;53.92;101581.97;10410722;28;20465;-79
2022/04/02 09:23:06;;;;;;;7.85;2.42;;;;;;;5.99;51.00;101590.00;10410925;28;20029;-78
2022/04/02 09:28:11;;;;;;;3.55;2.20;;;;;;;6.21;51.44;101592.59;10410494;28;20021;-79
2022/04/02 09:33:15;;;;;;;6.57;2.10;;;;;;;6.36;52.43;101592.84;10410917;28;20072;-79
2022/04/02 09:38:43;;;;;;;4.57;2.42;;;;;;;5.77;53.54;101598.69;10412664;28;20049;-79
2022/04/02 09:43:57;;;;;;;7.75;2.95;;;;;;;5.38;54.78;101613.84;10408106;28;20073;-79
2022/04/02 09:49:00;;;;;;;3.80;2.80;;;;;;;5.63;53.91;101612.28;10451667;28;20102;-78
2022/04/02 09:54:08;;;;;;;5.75;2.83;;;;;;;4.43;56.03;101614.66;10488549;28;20455;-78
2022/04/02 09:59:19;;;;;;;7.00;3.17;;;;;;;4.23;57.98;101627.78;10459511;28;20058;-80
2022/04/02 10:04:26;;;;;;;4.88;2.92;;;;;;;4.38;54.77;101632.44;10459486;28;20032;-76
2022/04/02 10:09:36;;;;;;;6.00;3.30;;;;;;;4.86;58.47;101636.41;10498772;28;20028;-77
2022/04/02 10:14:37;;;;;;;7.47;4.00;;;;;;;4.80;57.80;101630.72;10492397;28;20056;-78
2022/04/02 10:19:41;;;;;;;4.15;2.83;;;;;;;4.78;56.73;101630.59;10472780;28;20036;-76
2022/04/02 10:24:48;;;;;;;6.85;3.00;;;;;;;5.00;54.04;101628.09;10491781;28;20063;-77
2022/04/02 10:30:01;;;;;;;10.68;4.50;;;;;;;5.91;53.47;101624.84;10475051;28;20052;-80
2022/04/02 10:35:07;;;;;;;3.72;2.63;;;;;;;5.78;55.07;101617.81;10501197;28;20052;-78
2022/04/02 10:40:09;;;;;;;6.20;3.85;;;;;;;5.69;53.00;101615.38;10444059;28;20392;-87
2022/04/02 10:45:13;;;;;;;7.70;3.15;;;;;;;4.95;55.18;101620.72;10442980;28;20029;-82
2022/04/02 10:50:18;;;;;;;5.47;3.13;;;;;;;5.47;53.94;101620.56;10444748;28;20404;-79
2022/04/02 10:55:21;;;;;;;5.43;3.03;;;;;;;6.61;50.40;101623.34;10425445;28;20036;-76
2022/04/02 11:00:22;;;;;;;4.25;3.10;;;;;;;6.47;51.06;101624.91;10499549;28;20052;-77
2022/04/02 11:05:23;;;;;;;3.92;2.33;;;;;;;6.20;51.80;101631.47;10478054;28;20131;-79
2022/04/02 11:10:23;;;;;;;4.28;3.05;;;;;;;6.75;51.62;101637.41;10491178;28;20064;-79
2022/04/02 11:15:24;;;;;;;6.30;2.80;;;;;;;5.68;52.95;101631.75;10480378;28;20028;-78
2022/04/02 11:20:34;;;;;;;5.90;3.30;;;;;;;6.02;50.73;101629.25;10484013;28;20032;-77
2022/04/02 11:25:35;;;;;;;5.07;2.97;;;;;;;6.83;48.11;101631.06;10465423;28;20040;-78
2022/04/02 11:30:40;;;;;;;7.05;3.20;;;;;;;7.77;47.87;101621.38;10498371;28;20049;-78
2022/04/02 11:35:51;;;;;;;4.03;2.80;;;;;;;7.37;46.30;101635.81;10466219;28;20070;-80
2022/04/02 11:41:02;;;;;;;5.57;2.92;;;;;;;7.52;47.78;101626.50;10499545;28;20029;-78
2022/04/02 11:46:04;;;;;;;5.50;2.50;;;;;;;8.33;43.37;101639.97;10481022;28;20055;-77
2022/04/02 11:51:18;;;;;;;;;;;;;;;6.54;51.68;101642.78;10498448;28;20048;-78
2022/04/02 11:56:26;;;;;;;6.15;4.10;;;;;;;4.56;56.45;101659.00;10481024;28;19920;-77
2022/04/02 12:01:42;;;;;;;8.85;4.47;;;;;;;3.78;59.52;101664.47;10498596;28;20043;-79
2022/04/02 12:06:44;;;;;;;4.70;2.70;;;;;;;3.89;60.02;101662.78;10499376;28;20099;-79
2022/04/02 12:11:55;;;;;;;4.32;2.75;;;;;;;5.81;53.64;101662.22;10479974;28;20035;-78
2022/04/02 12:17:12;;;;;;;7.68;3.10;;;;;;;9.45;45.91;101652.63;10496267;28;20040;-79
2022/04/02 12:22:19;;;;;;;6.55;3.67;;;;;;;10.26;42.60;101648.13;10479596;28;20031;-79
2022/04/02 12:27:20;;;;;;;5.78;3.50;;;;;;;10.58;41.13;101634.38;10496207;28;20024;-79
2022/04/02 12:32:35;;;;;;;5.60;3.30;;;;;;;9.83;44.70;101638.47;10462650;28;20472;-79
2022/04/02 12:37:51;;;;;;;6.47;3.67;;;;;;;6.93;49.25;101644.78;10492596;28;20028;-79
2022/04/02 12:42:53;;;;;;;6.72;3.45;;;;;;;5.24;53.24;101641.25;10479955;28;20052;-79
2022/04/02 12:48:03;;;;;;;7.22;3.20;;;;;;;4.60;56.93;101655.00;10461762;28;20434;-79
2022/04/02 12:53:04;;;;;;;5.80;3.50;;;;;;;4.44;57.70;101652.78;10495693;28;20040;-80
2022/04/02 12:58:07;;;;;;;6.63;3.28;;;;;;;4.51;54.26;101661.22;10493931;28;20044;-79
2022/04/02 13:03:07;;;;;;;5.68;2.78;;;;;;;5.06;53.34;101655.31;10495422;28;20032;-79
2022/04/02 13:08:08;;;;;;;6.25;3.13;;;;;;;5.79;50.42;101663.78;10476633;28;20395;-79
2022/04/02 13:13:10;;;;;;;9.80;4.18;;;;;;;8.62;47.53;101648.91;10459832;28;20031;-79
2022/04/02 13:23:46;;;;;;;6.97;3.50;;;;;;;8.20;44.21;101633.00;10494745;28;20025;-80
2022/04/02 13:29:08;;;;;;;6.10;3.50;;;;;;;5.50;51.23;101645.06;10494111;28;20035;-79
2022/04/02 13:34:17;;;;;;;5.18;3.78;;;;;;;4.35;53.14;101646.03;10460844;28;20503;-79
2022/04/02 13:39:18;;;;;;;5.72;3.08;;;;;;;4.17;54.95;101645.38;10460565;28;20036;-79
2022/04/02 13:44:26;;;;;;;6.70;3.58;;;;;;;4.35;55.27;101652.91;10475491;28;20048;-78
2022/04/02 13:49:31;;;;;;;6.90;3.20;;;;;;;4.84;52.86;101638.91;10495025;28;20097;-79
2022/04/02 13:54:38;;;;;;;10.27;3.15;;;;;;;5.36;53.60;101643.03;10495288;28;20036;-79
2022/04/02 13:59:55;;;;;;;6.57;2.63;;;;;;;5.82;47.31;101638.94;10475908;28;20048;-79
2022/04/02 14:05:27;;;;;;;4.65;2.47;;;;;;;7.09;42.17;101636.41;10478033;28;20115;-79
2022/04/02 14:10:43;;;;;;;3.25;1.75;;;;;;;9.33;38.84;101616.16;10499847;28;20028;-79
2022/04/02 14:15:57;;;;;;;3.75;1.67;;;;;;;8.78;36.83;101623.06;10484010;28;20028;-79
2022/04/02 14:21:01;;;;;;;5.88;2.80;;;;;;;7.23;41.02;101630.50;10503091;28;20029;-79
2022/04/02 14:26:04;;;;;;;3.80;2.10;;;;;;;7.45;41.55;101645.09;10482444;28;20491;-79
2022/04/02 14:31:43;;;;;;;5.03;1.80;;;;;;;8.74;37.96;101636.72;10495634;28;20495;-78
2022/04/02 14:37:05;;;;;;;2.80;1.60;;;;;;;7.10;39.91;101625.19;10459880;28;20075;-80
2022/04/02 14:42:11;;;;;;;4.00;1.65;;;;;;;6.08;43.33;101636.63;10466109;28;20029;-79
2022/04/02 14:47:17;;;;;;;2.63;1.80;;;;;;;5.80;43.49;101632.72;10482646;28;20052;-79
2022/04/02 14:52:33;;;;;;;4.50;1.65;;;;;;;6.67;43.39;101634.19;10501481;28;20036;-79
2022/04/02 14:57:52;;;;;;;3.92;1.50;;;;;;;5.91;42.15;101645.66;10500539;28;20044;-80
2022/04/02 15:03:24;;;;;;;5.32;2.08;;;;;;;5.50;45.18;101646.78;10500875;28;20032;-79
2022/04/02 15:08:53;;;;;;;8.73;1.88;;;;;;;5.41;47.11;101650.44;10459563;28;20060;-79
2022/04/02 15:14:03;;;;;;;4.10;1.88;;;;;;;5.35;48.04;101647.34;10459624;28;20051;-79
2022/04/02 15:19:13;;;;;;;4.20;1.95;;;;;;;5.49;46.31;101643.25;10463793;28;20035;-79
2022/04/02 15:24:17;;;;;;;6.97;2.10;;;;;;;5.83;44.89;101652.84;10476018;28;20117;-79
2022/04/02 15:29:35;;;;;;;6.15;1.98;;;;;;;6.45;42.46;101653.38;10462166;28;20094;-80
2022/04/02 15:34:48;;;;;;;2.92;1.70;;;;;;;6.65;41.35;101642.69;10475866;28;20063;-81
2022/04/02 15:39:48;;;;;;;3.25;2.03;;;;;;;6.96;42.96;101652.81;10483135;28;20047;-81
2022/04/02 15:44:59;;;;;;;4.03;1.90;;;;;;;6.40;44.39;101654.72;10473928;28;20028;-81
2022/04/02 15:50:16;;;;;;;3.25;1.77;;;;;;;5.83;46.55;101652.84;10439553;28;20120;-81
2022/04/02 15:55:19;;;;;;;2.80;1.80;;;;;;;5.56;44.46;101668.94;10488859;28;20040;-81
2022/04/02 16:00:23;;;;;;;3.67;2.03;;;;;;;5.80;46.89;101674.28;10468979;28;20036;-83
2022/04/02 16:05:29;;;;;;;6.47;1.85;;;;;;;5.46;46.92;101679.34;10459288;28;20032;-79
2022/04/02 16:10:30;;;;;;;6.80;2.08;;;;;;;5.03;47.92;101683.59;10478676;28;20480;-79
2022/04/02 16:15:31;;;;;;;11.02;3.28;;;;;;;4.45;51.30;101684.03;10479512;28;20048;-80
2022/04/02 16:20:32;;;;;;;4.68;2.17;;;;;;;4.09;53.86;101693.03;10478274;28;20043;-82
2022/04/02 16:25:32;;;;;;;4.55;2.72;;;;;;;3.93;50.26;101707.25;10472745;28;20025;-81
2022/04/02 16:30:33;;;;;;;4.57;2.17;;;;;;;3.92;53.25;101707.09;10467482;28;20070;-81
2022/04/02 16:35:35;;;;;;;7.22;2.30;;;;;;;3.90;55.51;101725.09;10496188;28;20051;-85
2022/04/02 16:40:35;;;;;;;6.85;2.17;;;;;;;3.76;56.13;101735.91;10449038;28;20036;-78
2022/04/02 16:45:36;;;;;;;3.85;2.03;;;;;;;3.69;54.88;101738.72;10466686;28;20055;-79
2022/04/02 16:50:36;;;;;;;4.57;2.88;;;;;;;3.78;56.52;101743.03;10460750;28;20056;-80
2022/04/02 16:55:37;;;;;;;3.63;2.42;;;;;;;4.03;54.30;101739.13;10475643;28;20025;-79
2022/04/02 17:00:37;;;;;;;7.45;2.40;;;;;;;3.99;54.64;101737.03;10461823;28;20117;-78
2022/04/02 17:05:38;;;;;;;4.68;2.13;;;;;;;3.80;57.41;101751.84;10492177;28;20063;-78
2022/04/02 17:10:38;;;;;;;3.30;1.88;;;;;;;3.52;56.15;101749.38;10480212;28;20063;-78
2022/04/02 17:15:40;;;;;;;5.53;3.53;;;;;;;3.37;57.71;101760.91;10471306;28;20031;-80
2022/04/02 17:21:00;;;;;;;4.03;2.33;;;;;;;3.33;57.76;101759.75;10450142;28;20105;-78
2022/04/02 17:26:01;;;;;;;3.95;1.98;;;;;;;3.34;57.11;101760.66;10454173;28;20392;-77
2022/04/02 17:31:01;;;;;;;5.28;2.75;;;;;;;3.30;56.90;101766.31;10499379;28;20075;-79
2022/04/02 17:36:02;;;;;;;3.15;1.90;;;;;;;3.24;57.30;101779.59;10477533;28;20091;-79
2022/04/02 17:41:13;;;;;;;7.78;2.45;;;;;;;3.10;57.86;101785.19;10432026;28;20113;-81
2022/04/02 17:46:26;;;;;;;4.55;2.25;;;;;;;2.95;58.56;101793.34;10442901;28;20032;-78
2022/04/02 17:51:29;;;;;;;4.30;1.90;;;;;;;2.68;60.17;101794.22;10361710;28;20505;-79
2022/04/02 17:56:33;;;;;;;4.78;2.47;;;;;;;2.49;61.60;101801.19;10388920;28;20041;-78
2022/04/02 18:01:38;;;;;;;7.85;2.53;;;;;;;2.30;61.37;101815.69;10400820;28;20025;-78
2022/04/02 18:06:39;;;;;;;3.78;2.17;;;;;;;2.13;61.38;101814.97;10383822;28;20123;-80
2022/04/02 18:11:39;;;;;;;7.28;2.50;;;;;;;1.95;62.47;101818.34;10396231;28;20033;-79
2022/04/02 18:16:40;;;;;;;5.28;2.67;;;;;;;1.85;62.58;101826.84;10383562;28;20040;-80
2022/04/02 18:21:41;;;;;;;5.28;2.63;;;;;;;1.64;63.14;101842.03;10410487;28;20529;-78
2022/04/02 18:26:41;;;;;;;5.05;3.90;;;;;;;1.55;61.84;101847.19;10406552;28;20527;-78
2022/04/02 18:31:42;;;;;;;3.65;2.00;;;;;;;1.43;63.18;101849.44;10410826;28;20076;-78
2022/04/02 18:36:42;;;;;;;4.30;2.72;;;;;;;1.25;62.68;101857.91;10406889;28;20127;-78
2022/04/02 18:41:44;;;;;;;4.40;2.50;;;;;;;1.08;64.28;101866.53;10410747;28;20025;-78
2022/04/02 18:46:45;;;;;;;;;;;;;;;1.06;62.85;101870.63;10412642;28;20207;-78
2022/04/02 18:51:47;;;;;;;5.88;2.97;;;;;;;1.13;62.88;101878.25;10493616;28;19943;-80
2022/04/02 18:56:48;;;;;;;4.22;1.80;;;;;;;1.16;62.17;101876.88;10498112;28;20422;-81
2022/04/02 19:01:56;;;;;;;4.82;2.30;;;;;;;1.23;61.67;101888.72;10499675;28;20025;-81
2022/04/02 19:06:56;;;;;;;4.80;2.75;;;;;;;1.17;62.86;101895.84;10498907;28;20017;-81
2022/04/02 19:11:57;;;;;;;4.47;2.42;;;;;;;0.96;63.50;101903.22;10498287;28;20446;-82
2022/04/02 19:16:57;;;;;;;7.18;2.88;;;;;;;0.89;65.10;101911.06;10481628;28;20110;-78
2022/04/02 19:21:58;;;;;;;5.03;3.08;;;;;;;0.84;65.10;101914.81;10499510;28;20050;-78
2022/04/02 19:26:58;;;;;;;5.30;2.40;;;;;;;0.92;65.38;101916.53;10498986;28;20031;-78
2022/04/02 19:31:59;;;;;;;4.75;1.70;;;;;;;1.10;64.17;101922.66;10499110;28;20024;-79
2022/04/02 19:36:59;;;;;;;4.85;2.80;;;;;;;1.07;65.24;101929.19;10498509;28;20039;-78
2022/04/02 19:42:00;;;;;;;5.55;2.70;;;;;;;1.04;65.18;101936.59;10464132;28;20060;-78
2022/04/02 19:47:00;;;;;;;7.68;3.17;;;;;;;1.08;64.91;101936.16;10497061;28;20077;-78
2022/04/02 19:52:01;;;;;;;6.97;2.70;;;;;;;1.26;62.79;101942.28;10465467;28;20383;-78
2022/04/02 19:57:02;;;;;;;3.80;2.38;;;;;;;1.42;62.36;101944.78;10497592;28;20541;-78
2022/04/02 20:02:03;;;;;;;4.35;2.65;;;;;;;1.41;63.04;101955.84;10462664;28;20040;-78
2022/04/02 20:07:05;;;;;;;4.88;3.35;;;;;;;1.41;62.36;101950.69;10464297;28;20040;-78
2022/04/02 20:12:06;;;;;;;5.32;2.33;;;;;;;1.38;62.39;101961.59;10497726;28;20036;-79
2022/04/02 20:17:06;;;;;;;4.15;2.45;;;;;;;1.37;62.74;101953.72;10478878;28;20041;-78
2022/04/02 20:22:07;;;;;;;5.53;2.40;;;;;;;1.29;62.39;101961.56;10461258;28;20064;-79
2022/04/02 20:27:07;;;;;;;8.65;3.10;;;;;;;1.16;63.33;101971.38;10479918;28;20035;-79
2022/04/02 20:32:08;;;;;;;5.97;2.85;;;;;;;1.05;63.09;101964.22;10495660;28;20016;-79
2022/04/02 20:37:09;;;;;;;3.60;2.90;;;;;;;0.98;63.29;101973.88;10494743;28;20404;-79
2022/04/02 20:42:10;;;;;;;5.40;2.57;;;;;;;0.82;63.97;101984.25;10478356;28;20091;-79
2022/04/02 20:47:13;;;;;;;4.35;2.83;;;;;;;0.75;64.04;101978.31;10495256;28;20492;-78
2022/04/02 20:52:14;;;;;;;5.53;3.35;;;;;;;0.70;63.48;101986.47;10479309;28;20484;-78
2022/04/02 20:57:14;;;;;;;7.97;3.20;;;;;;;0.69;62.92;101986.28;10477050;28;20136;-78
2022/04/02 21:02:15;;;;;;;4.18;2.78;;;;;;;0.62;64.56;101989.91;10495931;28;20052;-79
2022/04/02 21:07:15;;;;;;;3.38;2.10;;;;;;;0.54;63.61;101989.06;10494781;28;20563;-79
2022/04/02 21:12:16;;;;;;;4.13;2.55;;;;;;;0.54;63.68;101995.91;10494317;28;20060;-78
2022/04/02 21:17:16;;;;;;;4.38;2.15;;;;;;;0.48;63.58;101997.81;10494193;28;20063;-78
2022/04/02 21:22:17;;;;;;;6.95;2.63;;;;;;;0.44;62.95;102006.88;10460146;28;20031;-79
2022/04/02 21:27:17;;;;;;;5.60;2.75;;;;;;;0.40;63.50;102010.81;10494462;28;20047;-78
2022/04/02 21:32:18;;;;;;;3.95;2.15;;;;;;;0.31;63.48;102014.97;10476665;28;20067;-79
2022/04/02 21:37:21;;;;;;;5.95;2.25;;;;;;;0.24;63.31;102022.78;10477204;28;20550;-79
2022/04/02 21:42:23;;;;;;;5.30;2.25;;;;;;;0.20;63.51;102029.25;10460054;28;20039;-78
2022/04/02 21:47:24;;;;;;;7.65;2.45;;;;;;;0.06;62.22;102027.78;10493860;28;20053;-78
2022/04/02 21:52:24;;;;;;;2.78;1.90;;;;;;;-0.04;64.02;102032.66;10494297;28;20472;-79
2022/04/02 21:57:26;;;;;;;4.18;2.10;;;;;;;-0.20;63.68;102035.22;10460228;28;20491;-78
2022/04/02 22:02:28;;;;;;;3.92;1.63;;;;;;;-0.31;63.52;102042.66;10474306;28;20051;-79
2022/04/02 22:07:29;;;;;;;4.38;2.17;;;;;;;-0.43;64.29;102043.88;10494560;28;20067;-79
2022/04/02 22:12:30;;;;;;;2.37;1.77;;;;;;;-0.55;64.83;102047.66;10493644;28;20056;-79
2022/04/02 22:17:31;;;;;;;4.47;3.20;;;;;;;-0.71;64.71;102045.06;10493046;28;20411;-79
2022/04/02 22:22:31;;;;;;;3.25;2.10;;;;;;;-0.77;64.59;102055.56;10493002;28;20322;-79
2022/04/02 22:27:32;;;;;;;5.13;2.35;;;;;;;-0.89;65.83;102056.00;10496929;28;20534;-79
2022/04/02 22:32:32;;;;;;;4.72;2.50;;;;;;;-1.00;66.53;102069.28;10501578;28;20024;-79
2022/04/02 22:37:33;;;;;;;5.90;2.70;;;;;;;-1.11;66.37;102059.44;10483662;28;20056;-79
2022/04/02 22:42:34;;;;;;;4.88;2.38;;;;;;;-1.28;67.32;102066.16;10501994;28;20444;-79
2022/04/02 22:47:35;;;;;;;4.63;2.10;;;;;;;-1.33;67.84;102075.00;10484520;28;20094;-79
2022/04/02 22:52:36;;;;;;;8.18;3.03;;;;;;;-1.43;67.83;102074.66;10501140;28;20286;-79
2022/04/02 22:57:36;;;;;;;6.78;3.40;;;;;;;-1.52;68.39;102079.69;10500202;28;20033;-79
2022/04/02 23:02:36;;;;;;;6.15;2.50;;;;;;;-1.68;68.44;102083.03;10500731;28;20103;-78
2022/04/02 23:07:37;;;;;;;7.75;2.75;;;;;;;-1.79;68.41;102093.69;10499007;28;20488;-79
2022/04/02 23:12:38;;;;;;;5.57;2.45;;;;;;;-2.01;69.07;102096.31;10500798;28;20044;-79
2022/04/02 23:17:38;;;;;;;3.67;1.95;;;;;;;-2.25;70.79;102085.00;10464981;28;20048;-80
2022/04/02 23:22:39;;;;;;;4.97;2.38;;;;;;;-2.25;71.16;102099.44;10482171;28;20116;-80
2022/04/02 23:27:39;;;;;;;5.00;3.67;;;;;;;-2.22;71.06;102097.25;10480851;28;20116;-81
2022/04/02 23:32:41;;;;;;;5.85;3.13;;;;;;;-2.25;71.14;102105.50;10480699;28;20067;-79